Weather at Haugesund Heliport, Haugesund Hospital

Public forecast

Using degrees Celsius for public forecast. Weather courtesy of forecast.io.

Closest aviation weather report (METAR) to Haugesund Heliport, Haugesund Hospital

Closest report is Haugesund Airport, Karm√ły, 4.4 nm (8.1 km) SSW.

2023/09/22 15:50 (retrieved 11 minutes ago)

ENHD 221550Z 18010KT 9999 FEW020TCU SCT082 15/10 Q0997

Closest aviation forecast (TAF) to Haugesund Heliport, Haugesund Hospital

Closest forecast is Stavanger Airport, Sola, 33.8 nm (62.6 km) SSE.

2023/09/22 12:36 (retrieved 3 hours ago)

TAF ENZV 221100Z 2212/2312 20012KT 9999 FEW020TCU SCT040 TEMPO 2212/2312 SHRA BKN015CB PROB30 TEMPO 2216/2219 TS BECMG 2218/2221 14005KT BECMG 2303/2306 28010KT